createdAt,value
2019-02-05T00:00:45.340Z,100051.25
2019-02-05T00:03:15.619Z,100055.61
2019-02-05T00:05:44.251Z,100049.19
2019-02-05T00:08:12.942Z,100044.30
2019-02-05T00:10:41.582Z,100056.94
2019-02-05T00:13:10.270Z,100049.52
2019-02-05T00:15:38.980Z,100040.91
2019-02-05T00:18:07.586Z,100045.18
2019-02-05T00:20:36.271Z,100045.38
2019-02-05T00:23:04.918Z,100050.45
2019-02-05T00:25:33.570Z,100051.89
2019-02-05T00:28:02.209Z,100062.01
2019-02-05T00:30:30.890Z,100063.59
2019-02-05T00:32:59.524Z,100068.16
2019-02-05T00:35:28.208Z,100059.62
2019-02-05T00:37:56.861Z,100072.53
2019-02-05T00:40:25.540Z,100072.77
2019-02-05T00:42:54.119Z,100071.63
2019-02-05T00:45:23.129Z,100070.51
2019-02-05T00:47:51.732Z,100072.70
2019-02-05T00:50:20.476Z,100066.29
2019-02-05T00:52:49.171Z,100066.47
2019-02-05T00:55:19.982Z,100070.27
2019-02-05T00:57:48.603Z,100065.34
2019-02-05T01:00:32.391Z,100064.65
2019-02-05T01:03:01.036Z,100056.30
2019-02-05T01:05:29.717Z,100055.31
2019-02-05T01:07:58.375Z,100053.28
2019-02-05T01:10:27.357Z,100057.11
2019-02-05T01:12:56.506Z,100050.55
2019-02-05T01:15:26.088Z,100047.53
2019-02-05T01:17:54.715Z,100048.60
2019-02-05T01:20:23.797Z,100050.28
2019-02-05T01:22:52.719Z,100052.28
2019-02-05T01:25:22.165Z,100060.25
2019-02-05T01:27:51.274Z,100072.16
2019-02-05T01:30:25.406Z,100068.59
2019-02-05T01:32:56.956Z,100072.13
2019-02-05T01:35:25.635Z,100070.41
2019-02-05T01:37:55.260Z,100062.64
2019-02-05T01:40:26.340Z,100071.52
2019-02-05T01:42:55.699Z,100076.55
2019-02-05T01:45:24.934Z,100071.47
2019-02-05T01:47:53.673Z,100074.69
2019-02-05T01:50:26.956Z,100085.44
2019-02-05T01:52:55.868Z,100086.64
2019-02-05T01:55:24.763Z,100076.64
2019-02-05T01:57:53.552Z,100078.09
2019-02-05T02:00:30.875Z,100076.02
2019-02-05T02:02:59.859Z,100072.51
2019-02-05T02:05:28.534Z,100064.34
2019-02-05T02:07:57.639Z,100059.14
2019-02-05T02:10:28.441Z,100065.48
2019-02-05T02:12:57.223Z,100065.95
2019-02-05T02:15:29.143Z,100064.63
2019-02-05T02:17:57.784Z,100067.23
2019-02-05T02:20:26.628Z,100069.78
2019-02-05T02:22:55.629Z,100071.25
2019-02-05T02:25:24.432Z,100070.89
2019-02-05T02:27:53.136Z,100069.16
2019-02-05T02:30:36.199Z,100064.52
2019-02-05T02:33:05.240Z,100078.83
2019-02-05T02:35:34.300Z,100075.97
2019-02-05T02:38:02.936Z,100073.92
2019-02-05T02:40:31.584Z,100065.66
2019-02-05T02:43:00.183Z,100060.95
2019-02-05T02:45:28.754Z,100063.62
2019-02-05T02:47:57.444Z,100060.16
2019-02-05T02:50:26.073Z,100062.77
2019-02-05T02:52:54.713Z,100059.33
2019-02-05T02:55:23.390Z,100059.37
2019-02-05T02:57:52.003Z,100069.78
2019-02-05T03:00:22.191Z,100062.47
2019-02-05T03:02:51.902Z,100064.98
2019-02-05T03:05:24.687Z,100064.52
2019-02-05T03:07:53.352Z,100064.53
2019-02-05T03:10:26.803Z,100068.03
2019-02-05T03:12:55.441Z,100066.72
2019-02-05T03:15:24.076Z,100071.03
2019-02-05T03:17:52.704Z,100071.88
2019-02-05T03:20:21.393Z,100072.33
2019-02-05T03:22:50.326Z,100073.62
2019-02-05T03:25:24.835Z,100075.39
2019-02-05T03:27:54.400Z,100071.51
2019-02-05T03:30:24.844Z,100075.41
2019-02-05T03:32:55.205Z,100080.60
2019-02-05T03:35:24.638Z,100084.52
2019-02-05T03:37:53.273Z,100082.35
2019-02-05T03:40:31.155Z,100083.66
2019-02-05T03:43:00.098Z,100078.48
2019-02-05T03:45:31.899Z,100084.92
2019-02-05T03:48:02.829Z,100077.59
2019-02-05T03:50:33.715Z,100085.38
2019-02-05T03:53:15.590Z,100087.11
2019-02-05T03:56:08.555Z,100087.12
2019-02-05T03:58:49.927Z,100080.63
2019-02-05T04:01:27.314Z,100073.27
2019-02-05T04:04:15.638Z,100071.53
2019-02-05T04:06:50.252Z,100076.28
2019-02-05T04:09:38.461Z,100083.63
2019-02-05T04:12:13.459Z,100080.17
2019-02-05T04:14:47.899Z,100085.36
2019-02-05T04:17:28.496Z,100093.52
2019-02-05T04:20:24.283Z,100096.97
2019-02-05T04:23:18.316Z,100093.95
2019-02-05T04:26:06.684Z,100096.09
2019-02-05T04:28:50.205Z,100101.22
2019-02-05T04:31:36.804Z,100093.38
2019-02-05T04:34:17.225Z,100100.64
2019-02-05T04:37:17.761Z,100105.37
2019-02-05T04:40:13.367Z,100109.99
2019-02-05T04:42:53.290Z,100106.52
2019-02-05T04:45:33.852Z,100116.13
2019-02-05T04:48:06.930Z,100109.70
2019-02-05T04:50:58.270Z,100103.75
2019-02-05T04:54:03.402Z,100108.92
2019-02-05T04:57:08.083Z,100107.57
2019-02-05T05:00:12.784Z,100109.16
2019-02-05T05:03:17.651Z,100113.00
2019-02-05T05:06:22.485Z,100123.67
2019-02-05T05:09:27.691Z,100122.47
2019-02-05T05:12:15.400Z,100127.30
2019-02-05T05:15:20.200Z,100125.66
2019-02-05T05:18:08.326Z,100130.78
2019-02-05T05:21:12.992Z,100136.58
2019-02-05T05:24:01.159Z,100130.98
2019-02-05T05:27:05.723Z,100129.66
2019-02-05T05:29:53.759Z,100137.17
2019-02-05T05:32:58.381Z,100133.25
2019-02-05T05:35:46.485Z,100135.42
2019-02-05T05:38:50.976Z,100133.03
2019-02-05T05:41:39.255Z,100135.13
2019-02-05T05:44:43.857Z,100141.14
2019-02-05T05:50:33.784Z,100144.28
2019-02-05T05:53:38.390Z,100154.16
2019-02-05T05:56:26.264Z,100149.86
2019-02-05T05:59:30.867Z,100152.23
2019-02-05T06:02:20.724Z,100161.86
2019-02-05T06:05:25.483Z,100164.08
2019-02-05T06:08:14.039Z,100164.16
2019-02-05T06:11:18.950Z,100168.08
2019-02-05T06:14:07.318Z,100169.42
2019-02-05T06:17:12.218Z,100175.94
2019-02-05T06:20:00.342Z,100180.69
2019-02-05T06:23:05.368Z,100176.84
2019-02-05T06:25:52.992Z,100177.75
2019-02-05T06:28:57.776Z,100180.37
2019-02-05T06:31:49.178Z,100178.21
2019-02-05T06:34:54.028Z,100177.83
2019-02-05T06:37:44.116Z,100172.23
2019-02-05T06:40:49.219Z,100176.09
2019-02-05T06:43:37.710Z,100182.18
2019-02-05T06:46:42.902Z,100183.52
2019-02-05T06:49:31.416Z,100187.39
2019-02-05T06:52:36.757Z,100180.41
2019-02-05T06:55:25.462Z,100190.71
2019-02-05T06:58:31.324Z,100185.42
2019-02-05T07:01:19.989Z,100181.80
2019-02-05T07:04:27.485Z,100183.88
2019-02-05T07:07:20.213Z,100180.45
2019-02-05T07:10:26.468Z,100179.41
2019-02-05T07:12:57.888Z,100186.80
2019-02-05T07:15:33.332Z,100185.50
2019-02-05T07:18:07.521Z,100178.66
2019-02-05T07:20:41.088Z,100168.98
2019-02-05T07:23:16.258Z,100165.35
2019-02-05T07:25:46.740Z,100172.44
2019-02-05T07:28:15.631Z,100173.11
2019-02-05T07:30:44.581Z,100167.41
2019-02-05T07:33:16.898Z,100189.39
2019-02-05T07:35:47.749Z,100203.73
2019-02-05T07:38:24.386Z,100204.91
2019-02-05T07:40:53.525Z,100204.09
2019-02-05T07:43:31.086Z,100205.87
2019-02-05T07:46:00.294Z,100200.65
2019-02-05T07:48:30.779Z,100200.95
2019-02-05T07:51:09.513Z,100207.73
2019-02-05T07:53:41.951Z,100206.60
2019-02-05T07:56:12.976Z,100198.48
2019-02-05T07:58:44.195Z,100209.87
2019-02-05T08:01:17.732Z,100200.00
2019-02-05T08:03:46.492Z,100190.92
2019-02-05T08:06:15.169Z,100184.81
2019-02-05T08:08:43.806Z,100189.23
2019-02-05T08:11:14.994Z,100192.48
2019-02-05T08:13:43.836Z,100184.33
2019-02-05T08:16:12.855Z,100178.11
2019-02-05T08:18:45.187Z,100180.82
2019-02-05T08:21:14.677Z,100175.61
2019-02-05T08:23:47.723Z,100175.75
2019-02-05T08:26:18.931Z,100178.67
2019-02-05T08:28:51.043Z,100176.44
2019-02-05T08:31:20.499Z,100180.85
2019-02-05T08:33:52.019Z,100179.37
2019-02-05T08:36:21.548Z,100184.73
2019-02-05T08:38:51.826Z,100179.97
2019-02-05T08:41:23.936Z,100178.89
2019-02-05T08:43:53.409Z,100182.05
2019-02-05T08:46:22.587Z,100186.65
2019-02-05T08:48:52.597Z,100173.86
2019-02-05T08:51:22.001Z,100165.30
2019-02-05T08:53:54.710Z,100162.16
2019-02-05T08:56:25.592Z,100161.06
2019-02-05T08:58:54.774Z,100155.67
2019-02-05T09:01:24.182Z,100154.62
2019-02-05T09:03:57.188Z,100163.17
2019-02-05T09:06:26.491Z,100161.29
2019-02-05T09:08:55.382Z,100158.23
2019-02-05T09:11:24.622Z,100158.30
2019-02-05T09:14:10.583Z,100160.45
2019-02-05T09:16:28.391Z,100156.92
2019-02-05T09:18:57.332Z,100148.89
2019-02-05T09:21:26.421Z,100146.73
2019-02-05T09:23:55.679Z,100141.56
2019-02-05T09:26:25.186Z,100139.96
2019-02-05T09:28:53.866Z,100132.07
2019-02-05T09:31:23.930Z,100129.01
2019-02-05T09:33:52.644Z,100124.74
2019-02-05T09:36:21.731Z,100125.75
2019-02-05T09:38:50.476Z,100124.02
2019-02-05T09:41:19.266Z,100118.78
2019-02-05T09:43:48.678Z,100118.70
2019-02-05T09:46:20.373Z,100117.33
2019-02-05T09:48:50.904Z,100116.22
2019-02-05T09:51:19.878Z,100109.13
2019-02-05T09:53:48.538Z,100106.50
2019-02-05T09:56:18.947Z,100101.91
2019-02-05T09:58:47.621Z,100102.13
2019-02-05T10:01:16.258Z,100089.92
2019-02-05T10:03:44.937Z,100080.19
2019-02-05T10:06:13.633Z,100080.16
2019-02-05T10:08:43.215Z,100080.51
2019-02-05T10:11:12.146Z,100072.39
2019-02-05T10:13:40.854Z,100065.66
2019-02-05T10:16:09.489Z,100060.99
2019-02-05T10:18:38.135Z,100057.87
2019-02-05T10:21:09.696Z,100063.33
2019-02-05T10:23:38.329Z,100049.42
2019-02-05T10:26:07.713Z,100051.89
2019-02-05T10:28:36.336Z,100048.25
2019-02-05T10:31:05.101Z,100050.70
2019-02-05T10:33:35.456Z,100041.52
2019-02-05T10:36:04.224Z,100045.84
2019-02-05T10:38:33.850Z,100046.16
2019-02-05T10:41:02.606Z,100040.80
2019-02-05T10:43:32.772Z,100039.20
2019-02-05T10:46:01.492Z,100034.91
2019-02-05T10:48:30.336Z,100025.98
2019-02-05T10:50:59.231Z,100033.24
2019-02-05T10:53:28.070Z,100020.69
2019-02-05T10:55:56.972Z,100036.53
2019-02-05T10:58:28.289Z,100030.86
2019-02-05T11:01:00.582Z,100017.98
2019-02-05T11:03:29.973Z,100023.34
2019-02-05T11:06:00.346Z,100014.00
2019-02-05T11:08:30.665Z,100015.09
2019-02-05T11:11:02.358Z,100009.84
2019-02-05T11:13:36.189Z,100006.42
2019-02-05T11:16:08.669Z,100005.09
2019-02-05T11:18:37.018Z,99996.75
2019-02-05T11:21:06.888Z,99989.58
2019-02-05T11:23:35.828Z,99995.48
2019-02-05T11:26:04.773Z,100005.12
2019-02-05T11:28:33.999Z,100003.37
2019-02-05T11:31:03.002Z,100002.51
2019-02-05T11:33:32.346Z,99992.20
2019-02-05T11:36:01.855Z,99989.47
2019-02-05T11:38:30.855Z,99991.27
2019-02-05T11:40:59.860Z,99991.96
2019-02-05T11:43:34.322Z,99986.05
2019-02-05T11:46:03.437Z,99982.72
2019-02-05T11:48:34.548Z,99976.92
2019-02-05T11:51:08.410Z,99974.95
2019-02-05T11:53:37.683Z,99965.72
2019-02-05T11:56:06.751Z,99964.63
2019-02-05T11:58:38.421Z,99964.30
2019-02-05T12:01:10.746Z,99957.64
2019-02-05T12:03:43.337Z,99961.93
2019-02-05T12:06:18.370Z,99961.66
2019-02-05T12:08:50.544Z,99969.48
2019-02-05T12:11:24.255Z,99956.88
2019-02-05T12:13:56.759Z,99953.07
2019-02-05T12:16:36.039Z,99949.97
2019-02-05T12:19:07.082Z,99948.13
2019-02-05T12:21:46.080Z,99947.26
2019-02-05T12:24:21.727Z,99942.30
2019-02-05T12:26:54.529Z,99944.91
2019-02-05T12:29:30.304Z,99951.64
2019-02-05T12:32:05.289Z,99952.48
2019-02-05T12:34:47.714Z,99949.10
2019-02-05T12:37:12.236Z,99949.16
2019-02-05T12:39:44.355Z,99936.66
2019-02-05T12:42:15.727Z,99940.63
2019-02-05T12:44:47.150Z,99930.77
2019-02-05T12:47:18.472Z,99933.47
2019-02-05T12:49:53.914Z,99924.11
2019-02-05T12:52:24.149Z,99931.04
2019-02-05T12:54:52.940Z,99929.44
2019-02-05T12:57:21.555Z,99932.08
2019-02-05T12:59:50.226Z,99918.78
2019-02-05T13:02:22.856Z,99912.38
2019-02-05T13:04:51.543Z,99917.00
2019-02-05T13:07:20.150Z,99910.45
2019-02-05T13:09:48.716Z,99909.95
2019-02-05T13:12:17.385Z,99904.83
2019-02-05T13:14:49.307Z,99908.09
2019-02-05T13:17:20.780Z,99901.91
2019-02-05T13:19:49.434Z,99901.81
2019-02-05T13:22:18.107Z,99898.45
2019-02-05T13:24:46.923Z,99900.89
2019-02-05T13:27:18.470Z,99893.86
2019-02-05T13:29:49.465Z,99888.20
2019-02-05T13:32:20.898Z,99884.55
2019-02-05T13:34:49.724Z,99873.75
2019-02-05T13:37:21.115Z,99873.84
2019-02-05T13:39:49.980Z,99868.27
2019-02-05T13:42:18.701Z,99870.86
2019-02-05T13:44:47.777Z,99875.14
2019-02-05T13:47:16.570Z,99871.25
2019-02-05T13:49:45.417Z,99876.67
2019-02-05T13:52:14.131Z,99878.28
2019-02-05T13:54:42.847Z,99877.80
2019-02-05T13:57:12.505Z,99872.47
2019-02-05T13:59:43.386Z,99868.17
2019-02-05T14:02:12.271Z,99869.30
2019-02-05T14:04:41.072Z,99867.72
2019-02-05T14:07:09.789Z,99874.02
2019-02-05T14:09:41.340Z,99870.36
2019-02-05T14:12:10.030Z,99872.97
2019-02-05T14:14:38.941Z,99872.34
2019-02-05T14:17:07.662Z,99866.73
2019-02-05T14:19:36.264Z,99864.97
2019-02-05T14:22:04.939Z,99874.42
2019-02-05T14:24:33.681Z,99873.16
2019-02-05T14:27:02.373Z,99870.83
2019-02-05T14:29:31.008Z,99870.83
2019-02-05T14:31:59.650Z,99866.78
2019-02-05T14:34:31.001Z,99867.45
2019-02-05T14:37:02.382Z,99858.61
2019-02-05T14:39:31.051Z,99858.61
2019-02-05T14:42:02.115Z,99866.77
2019-02-05T14:44:30.939Z,99873.04
2019-02-05T14:46:59.612Z,99872.26
2019-02-05T14:49:28.215Z,99878.63
2019-02-05T14:51:57.915Z,99874.77
2019-02-05T14:54:29.592Z,99871.34
2019-02-05T14:56:58.226Z,99871.78
2019-02-05T14:59:27.181Z,99872.98
2019-02-05T15:01:55.810Z,99875.77
2019-02-05T15:04:25.054Z,99873.38
2019-02-05T15:06:53.684Z,99870.40
2019-02-05T15:09:22.324Z,99869.59
2019-02-05T15:11:51.004Z,99868.45
2019-02-05T15:14:19.638Z,99872.85
2019-02-05T15:16:48.269Z,99870.92
2019-02-05T15:19:16.970Z,99878.61
2019-02-05T15:21:45.664Z,99879.17
2019-02-05T15:24:14.450Z,99885.03
2019-02-05T15:26:43.089Z,99880.88
2019-02-05T15:29:11.830Z,99881.05
2019-02-05T15:31:40.454Z,99884.89
2019-02-05T15:34:10.745Z,99886.58
2019-02-05T15:36:39.513Z,99896.11
2019-02-05T15:39:11.042Z,99891.48
2019-02-05T15:41:39.679Z,99894.36
2019-02-05T15:44:08.350Z,99902.36
2019-02-05T15:46:37.043Z,99901.92
2019-02-05T15:49:05.729Z,99900.36
2019-02-05T15:51:34.370Z,99895.55
2019-02-05T15:54:02.929Z,99896.84
2019-02-05T15:56:31.682Z,99895.34
2019-02-05T15:59:00.324Z,99898.89
2019-02-05T16:01:29.191Z,99901.80
2019-02-05T16:03:57.806Z,99894.07
2019-02-05T16:06:26.554Z,99898.91
2019-02-05T16:08:55.190Z,99906.45
2019-02-05T16:11:23.971Z,99911.68
2019-02-05T16:13:52.704Z,99921.90
2019-02-05T16:16:21.333Z,99918.48
2019-02-05T16:18:53.205Z,99925.08
2019-02-05T16:21:20.422Z,99928.30
2019-02-05T16:23:49.830Z,99942.43
2019-02-05T16:26:18.640Z,99950.75
2019-02-05T16:28:47.992Z,99954.78
2019-02-05T16:31:19.640Z,99955.23
2019-02-05T16:33:48.270Z,99956.53
2019-02-05T16:36:17.512Z,99946.20
2019-02-05T16:38:46.224Z,99936.67
2019-02-05T16:41:14.900Z,99930.95
2019-02-05T16:43:44.158Z,99937.42
2019-02-05T16:46:12.792Z,99938.68
2019-02-05T16:48:41.482Z,99933.45
2019-02-05T16:51:19.236Z,99936.47
2019-02-05T16:53:47.911Z,99936.07
2019-02-05T16:56:17.915Z,99933.46
2019-02-05T16:58:49.958Z,99930.09
2019-02-05T17:01:21.503Z,99937.52
2019-02-05T17:03:50.281Z,99936.69
2019-02-05T17:06:18.902Z,99938.94
2019-02-05T17:08:47.622Z,99936.28
2019-02-05T17:11:16.304Z,99935.81
2019-02-05T17:13:44.940Z,99938.93
2019-02-05T17:16:13.913Z,99929.92
2019-02-05T17:18:42.547Z,99931.31
2019-02-05T17:21:11.330Z,99937.48
2019-02-05T17:23:39.886Z,99939.34
2019-02-05T17:26:08.526Z,99935.53
2019-02-05T17:28:37.702Z,99933.92
2019-02-05T17:31:06.520Z,99931.30
2019-02-05T17:33:38.134Z,99931.31
2019-02-05T17:36:07.590Z,99935.62
2019-02-05T17:38:37.878Z,99941.69
2019-02-05T17:41:06.505Z,99938.58
2019-02-05T17:43:35.210Z,99936.97
2019-02-05T17:46:05.935Z,99943.59
2019-02-05T17:48:34.767Z,99944.89
2019-02-05T17:51:03.465Z,99959.44
2019-02-05T17:53:32.162Z,99962.63
2019-02-05T17:56:00.715Z,99957.05
2019-02-05T17:58:32.752Z,99962.39
2019-02-05T18:01:03.879Z,99956.78
2019-02-05T18:03:32.581Z,99960.27
2019-02-05T18:06:04.286Z,99965.94
2019-02-05T18:08:35.826Z,99962.92
2019-02-05T18:11:05.075Z,99954.74
2019-02-05T18:13:33.805Z,99959.62
2019-02-05T18:16:02.918Z,99957.17
2019-02-05T18:18:31.592Z,99968.48
2019-02-05T18:21:03.619Z,99976.84
2019-02-05T18:23:32.371Z,99983.87
2019-02-05T18:26:01.000Z,99962.63
2019-02-05T18:28:31.041Z,99963.02
2019-02-05T18:31:02.877Z,99963.49
2019-02-05T18:33:31.673Z,99965.79
2019-02-05T18:36:00.482Z,99971.05
2019-02-05T18:38:29.135Z,99973.69
2019-02-05T18:40:57.796Z,99973.79
2019-02-05T18:43:26.501Z,99976.90
2019-02-05T18:45:55.164Z,99975.16
2019-02-05T18:48:26.833Z,99966.08
2019-02-05T18:50:55.809Z,99959.55
2019-02-05T18:53:24.427Z,99955.73
2019-02-05T18:55:55.809Z,99956.20
2019-02-05T18:58:26.694Z,99957.16
2019-02-05T19:00:54.842Z,99958.48
2019-02-05T19:03:23.517Z,99949.36
2019-02-05T19:05:52.168Z,99944.16
2019-02-05T19:08:20.945Z,99947.61
2019-02-05T19:10:52.530Z,99945.87
2019-02-05T19:13:21.341Z,99946.78
2019-02-05T19:15:50.067Z,99942.09
2019-02-05T19:18:18.949Z,99944.69
2019-02-05T19:20:47.599Z,99950.33
2019-02-05T19:23:16.225Z,99952.55
2019-02-05T19:25:52.336Z,99956.47
2019-02-05T19:28:31.363Z,99960.34
2019-02-05T19:31:01.633Z,99964.27
2019-02-05T19:33:30.262Z,99963.91
2019-02-05T19:35:58.863Z,99961.30
2019-02-05T19:38:27.569Z,99956.19
2019-02-05T19:40:57.814Z,99948.91
2019-02-05T19:43:29.576Z,99940.74
2019-02-05T19:46:05.361Z,99936.81
2019-02-05T19:48:38.750Z,99935.13
2019-02-05T19:51:10.325Z,99936.42
2019-02-05T19:53:39.017Z,99936.41
2019-02-05T19:56:08.021Z,99938.53
2019-02-05T19:58:37.129Z,99937.75
2019-02-05T20:01:08.714Z,99943.44
2019-02-05T20:03:39.022Z,99943.42
2019-02-05T20:06:07.953Z,99943.89
2019-02-05T20:08:38.027Z,99950.37
2019-02-05T20:11:09.640Z,99951.72
2019-02-05T20:13:40.762Z,99956.01
2019-02-05T20:16:09.490Z,99959.88
2019-02-05T20:18:40.864Z,99964.64
2019-02-05T20:21:09.737Z,99970.70
2019-02-05T20:23:38.377Z,99970.69
2019-02-05T20:26:07.333Z,99968.56
2019-02-05T20:28:36.353Z,99965.03
2019-02-05T20:31:07.708Z,99964.17
2019-02-05T20:33:36.351Z,99971.45
2019-02-05T20:36:05.149Z,99963.22
2019-02-05T20:38:33.896Z,99957.56
2019-02-05T20:41:03.267Z,99958.81
2019-02-05T20:43:32.030Z,99960.03
2019-02-05T20:46:03.656Z,99963.52
2019-02-05T20:48:35.432Z,99959.17
2019-02-05T20:51:06.969Z,99960.42
2019-02-05T20:53:35.599Z,99957.85
2019-02-05T20:56:04.530Z,99956.97
2019-02-05T20:58:33.318Z,99958.05
2019-02-05T21:01:02.916Z,99961.98
2019-02-05T21:03:31.592Z,99955.08
2019-02-05T21:06:00.226Z,99948.59
2019-02-05T21:08:32.013Z,99947.70
2019-02-05T21:11:00.742Z,99943.36
2019-02-05T21:13:29.292Z,99935.57
2019-02-05T21:16:03.555Z,99934.64
2019-02-05T21:18:35.266Z,99919.85
2019-02-05T21:21:04.371Z,99922.78
2019-02-05T21:23:33.046Z,99903.77
2019-02-05T21:26:01.656Z,99908.97
2019-02-05T21:28:30.342Z,99918.03
2019-02-05T21:30:59.053Z,99918.36
2019-02-05T21:33:27.731Z,99918.42
2019-02-05T21:35:59.313Z,99921.08
2019-02-05T21:38:27.966Z,99924.17
2019-02-05T21:40:58.215Z,99925.83
2019-02-05T21:43:26.772Z,99917.56
2019-02-05T21:45:55.343Z,99920.02
2019-02-05T21:48:24.292Z,99916.88
2019-02-05T21:50:56.560Z,99917.23
2019-02-05T21:53:25.200Z,99929.82
2019-02-05T21:55:53.755Z,99925.48
2019-02-05T21:58:25.549Z,99919.80
2019-02-05T22:00:54.271Z,99908.58
2019-02-05T22:03:23.998Z,99909.43
2019-02-05T22:05:52.595Z,99901.25
2019-02-05T22:08:21.271Z,99905.34
2019-02-05T22:10:49.930Z,99892.24
2019-02-05T22:13:18.518Z,99896.35
2019-02-05T22:15:47.142Z,99880.43
2019-02-05T22:18:15.681Z,99881.55
2019-02-05T22:20:44.365Z,99889.80
2019-02-05T22:23:13.644Z,99902.78
2019-02-05T22:25:42.375Z,99907.48
2019-02-05T22:28:14.038Z,99903.81
2019-02-05T22:30:42.710Z,99913.19
2019-02-05T22:33:11.376Z,99912.88
2019-02-05T22:35:40.031Z,99907.13
2019-02-05T22:38:08.712Z,99907.65
2019-02-05T22:40:40.190Z,99909.17
2019-02-05T22:43:09.208Z,99899.81
2019-02-05T22:45:40.909Z,99887.73
2019-02-05T22:48:08.243Z,99885.78
2019-02-05T22:50:38.017Z,99898.30
2019-02-05T22:53:09.298Z,99896.53
2019-02-05T22:55:37.924Z,99896.65
2019-02-05T22:58:07.060Z,99897.97
2019-02-05T23:00:56.554Z,99894.99
2019-02-05T23:03:30.666Z,99881.22
2019-02-05T23:06:23.517Z,99871.70
2019-02-05T23:08:53.271Z,99859.97
2019-02-05T23:11:43.810Z,99850.07
2019-02-05T23:14:12.441Z,99842.33
2019-02-05T23:16:41.106Z,99842.77
2019-02-05T23:19:09.736Z,99835.46
2019-02-05T23:21:38.843Z,99837.15
2019-02-05T23:24:07.485Z,99847.12
2019-02-05T23:26:36.126Z,99848.87
2019-02-05T23:29:04.812Z,99850.08
2019-02-05T23:31:33.578Z,99856.91
2019-02-05T23:34:06.114Z,99855.76
2019-02-05T23:36:35.168Z,99860.16
2019-02-05T23:39:04.844Z,99855.47
2019-02-05T23:41:33.444Z,99861.96
2019-02-05T23:44:02.091Z,99854.06
2019-02-05T23:46:30.722Z,99845.33
2019-02-05T23:48:59.320Z,99842.31
2019-02-05T23:51:28.019Z,99833.13
2019-02-05T23:53:56.688Z,99833.63
2019-02-05T23:56:25.864Z,99830.70
2019-02-05T23:58:54.979Z,99833.52
